sensor_id;sensor_type;location;lat;lon;timestamp;pressure;altitude;pressure_sealevel;temperature
12007;BMP180;6062;47.294;12.182;2023-04-01T00:00:53;79128.00;;;3.90
12007;BMP180;6062;47.294;12.182;2023-04-01T00:03:20;79122.00;;;3.90
12007;BMP180;6062;47.294;12.182;2023-04-01T00:05:47;79126.00;;;3.90
12007;BMP180;6062;47.294;12.182;2023-04-01T00:08:13;79128.00;;;3.90
12007;BMP180;6062;47.294;12.182;2023-04-01T00:10:39;79116.00;;;3.90
12007;BMP180;6062;47.294;12.182;2023-04-01T00:13:05;79124.00;;;3.90
12007;BMP180;6062;47.294;12.182;2023-04-01T00:15:31;79117.00;;;3.90
12007;BMP180;6062;47.294;12.182;2023-04-01T00:17:56;79111.00;;;3.90
12007;BMP180;6062;47.294;12.182;2023-04-01T00:20:22;79120.00;;;3.90
12007;BMP180;6062;47.294;12.182;2023-04-01T00:22:48;79117.00;;;4.00
12007;BMP180;6062;47.294;12.182;2023-04-01T00:25:14;79113.00;;;4.00
12007;BMP180;6062;47.294;12.182;2023-04-01T00:27:40;79122.00;;;4.10
12007;BMP180;6062;47.294;12.182;2023-04-01T00:30:07;79119.00;;;4.10
12007;BMP180;6062;47.294;12.182;2023-04-01T00:32:34;79116.00;;;4.10
12007;BMP180;6062;47.294;12.182;2023-04-01T00:35:00;79106.00;;;4.10
12007;BMP180;6062;47.294;12.182;2023-04-01T00:37:28;79118.00;;;4.00
12007;BMP180;6062;47.294;12.182;2023-04-01T00:39:54;79121.00;;;4.00
12007;BMP180;6062;47.294;12.182;2023-04-01T00:42:20;79124.00;;;4.00
12007;BMP180;6062;47.294;12.182;2023-04-01T00:44:52;79115.00;;;4.00
12007;BMP180;6062;47.294;12.182;2023-04-01T00:47:18;79116.00;;;4.00
12007;BMP180;6062;47.294;12.182;2023-04-01T00:49:48;79127.00;;;4.10
12007;BMP180;6062;47.294;12.182;2023-04-01T00:52:23;79123.00;;;4.10
12007;BMP180;6062;47.294;12.182;2023-04-01T00:54:57;79120.00;;;4.10
12007;BMP180;6062;47.294;12.182;2023-04-01T00:57:31;79129.00;;;4.20
12007;BMP180;6062;47.294;12.182;2023-04-01T01:00:00;79126.00;;;4.20
12007;BMP180;6062;47.294;12.182;2023-04-01T01:02:26;79116.00;;;4.20
12007;BMP180;6062;47.294;12.182;2023-04-01T01:04:52;79120.00;;;4.20
12007;BMP180;6062;47.294;12.182;2023-04-01T01:08:03;79122.00;;;4.20
12007;BMP180;6062;47.294;12.182;2023-04-01T01:10:37;79117.00;;;4.10
12007;BMP180;6062;47.294;12.182;2023-04-01T01:16:02;79113.00;;;4.10
12007;BMP180;6062;47.294;12.182;2023-04-01T01:36:33;79096.00;;;4.00
12007;BMP180;6062;47.294;12.182;2023-04-01T01:39:03;79098.00;;;3.90
12007;BMP180;6062;47.294;12.182;2023-04-01T01:41:32;79097.00;;;3.90
12007;BMP180;6062;47.294;12.182;2023-04-01T01:44:02;79084.00;;;4.00
12007;BMP180;6062;47.294;12.182;2023-04-01T01:46:30;79094.00;;;4.00
12007;BMP180;6062;47.294;12.182;2023-04-01T01:48:59;79082.00;;;4.00
12007;BMP180;6062;47.294;12.182;2023-04-01T01:51:28;79079.00;;;4.00
12007;BMP180;6062;47.294;12.182;2023-04-01T01:53:54;79086.00;;;3.90
12007;BMP180;6062;47.294;12.182;2023-04-01T01:56:23;79083.00;;;3.90
12007;BMP180;6062;47.294;12.182;2023-04-01T01:59:01;79078.00;;;3.90
12007;BMP180;6062;47.294;12.182;2023-04-01T02:01:33;79077.00;;;3.90
12007;BMP180;6062;47.294;12.182;2023-04-01T02:04:00;79085.00;;;3.80
12007;BMP180;6062;47.294;12.182;2023-04-01T02:06:31;79085.00;;;3.80
12007;BMP180;6062;47.294;12.182;2023-04-01T02:09:01;79096.00;;;3.80
12007;BMP180;6062;47.294;12.182;2023-04-01T02:11:48;79081.00;;;3.90
12007;BMP180;6062;47.294;12.182;2023-04-01T02:19:29;79088.00;;;3.90
12007;BMP180;6062;47.294;12.182;2023-04-01T02:22:03;79087.00;;;4.00
12007;BMP180;6062;47.294;12.182;2023-04-01T02:24:33;79095.00;;;4.00
12007;BMP180;6062;47.294;12.182;2023-04-01T02:27:01;79086.00;;;4.00
12007;BMP180;6062;47.294;12.182;2023-04-01T02:29:27;79071.00;;;3.90
12007;BMP180;6062;47.294;12.182;2023-04-01T02:31:54;79083.00;;;3.90
12007;BMP180;6062;47.294;12.182;2023-04-01T02:34:22;79081.00;;;3.90
12007;BMP180;6062;47.294;12.182;2023-04-01T02:36:50;79082.00;;;3.90
12007;BMP180;6062;47.294;12.182;2023-04-01T02:39:17;79088.00;;;4.00
12007;BMP180;6062;47.294;12.182;2023-04-01T02:41:45;79091.00;;;4.00
12007;BMP180;6062;47.294;12.182;2023-04-01T02:44:13;79099.00;;;4.10
12007;BMP180;6062;47.294;12.182;2023-04-01T02:46:40;79092.00;;;4.10
12007;BMP180;6062;47.294;12.182;2023-04-01T02:49:06;79095.00;;;4.10
12007;BMP180;6062;47.294;12.182;2023-04-01T02:51:33;79090.00;;;4.00
12007;BMP180;6062;47.294;12.182;2023-04-01T02:53:58;79069.00;;;4.00
12007;BMP180;6062;47.294;12.182;2023-04-01T02:56:24;79076.00;;;4.00
12007;BMP180;6062;47.294;12.182;2023-04-01T02:58:52;79082.00;;;3.90
12007;BMP180;6062;47.294;12.182;2023-04-01T03:01:18;79087.00;;;3.80
12007;BMP180;6062;47.294;12.182;2023-04-01T03:03:43;79084.00;;;3.80
12007;BMP180;6062;47.294;12.182;2023-04-01T03:06:14;79063.00;;;3.80
12007;BMP180;6062;47.294;12.182;2023-04-01T03:08:40;79083.00;;;3.80
12007;BMP180;6062;47.294;12.182;2023-04-01T03:11:06;79085.00;;;3.80
12007;BMP180;6062;47.294;12.182;2023-04-01T03:13:32;79096.00;;;3.80
12007;BMP180;6062;47.294;12.182;2023-04-01T03:15:58;79101.00;;;3.80
12007;BMP180;6062;47.294;12.182;2023-04-01T03:18:24;79102.00;;;3.90
12007;BMP180;6062;47.294;12.182;2023-04-01T03:20:50;79109.00;;;3.90
12007;BMP180;6062;47.294;12.182;2023-04-01T03:23:16;79113.00;;;3.90
12007;BMP180;6062;47.294;12.182;2023-04-01T03:25:43;79115.00;;;3.90
12007;BMP180;6062;47.294;12.182;2023-04-01T03:28:08;79121.00;;;3.90
12007;BMP180;6062;47.294;12.182;2023-04-01T03:30:35;79126.00;;;3.90
12007;BMP180;6062;47.294;12.182;2023-04-01T03:33:01;79126.00;;;4.00
12007;BMP180;6062;47.294;12.182;2023-04-01T03:35:28;79110.00;;;4.00
12007;BMP180;6062;47.294;12.182;2023-04-01T03:37:54;79121.00;;;4.00
12007;BMP180;6062;47.294;12.182;2023-04-01T03:40:21;79116.00;;;4.00
12007;BMP180;6062;47.294;12.182;2023-04-01T03:42:47;79122.00;;;4.00
12007;BMP180;6062;47.294;12.182;2023-04-01T03:45:13;79125.00;;;4.00
12007;BMP180;6062;47.294;12.182;2023-04-01T03:47:39;79127.00;;;3.90
12007;BMP180;6062;47.294;12.182;2023-04-01T03:50:06;79131.00;;;3.90
12007;BMP180;6062;47.294;12.182;2023-04-01T03:52:33;79128.00;;;3.90
12007;BMP180;6062;47.294;12.182;2023-04-01T03:55:01;79136.00;;;4.00
12007;BMP180;6062;47.294;12.182;2023-04-01T03:57:27;79136.00;;;4.00
12007;BMP180;6062;47.294;12.182;2023-04-01T03:59:53;79139.00;;;4.00
12007;BMP180;6062;47.294;12.182;2023-04-01T04:02:19;79131.00;;;3.90
12007;BMP180;6062;47.294;12.182;2023-04-01T04:04:44;79138.00;;;3.90
12007;BMP180;6062;47.294;12.182;2023-04-01T04:07:12;79129.00;;;3.90
12007;BMP180;6062;47.294;12.182;2023-04-01T04:09:37;79141.00;;;3.90
12007;BMP180;6062;47.294;12.182;2023-04-01T04:12:04;79143.00;;;3.90
12007;BMP180;6062;47.294;12.182;2023-04-01T04:14:31;79138.00;;;3.80
12007;BMP180;6062;47.294;12.182;2023-04-01T04:16:57;79133.00;;;3.70
12007;BMP180;6062;47.294;12.182;2023-04-01T04:19:23;79127.00;;;3.70
12007;BMP180;6062;47.294;12.182;2023-04-01T04:21:48;79131.00;;;3.70
12007;BMP180;6062;47.294;12.182;2023-04-01T04:24:14;79115.00;;;3.60
12007;BMP180;6062;47.294;12.182;2023-04-01T04:26:40;79120.00;;;3.50
12007;BMP180;6062;47.294;12.182;2023-04-01T04:29:05;79122.00;;;3.40
12007;BMP180;6062;47.294;12.182;2023-04-01T04:31:31;79121.00;;;3.30
12007;BMP180;6062;47.294;12.182;2023-04-01T04:34:00;79135.00;;;3.30
12007;BMP180;6062;47.294;12.182;2023-04-01T04:36:26;79127.00;;;3.20
12007;BMP180;6062;47.294;12.182;2023-04-01T04:38:52;79129.00;;;3.20
12007;BMP180;6062;47.294;12.182;2023-04-01T04:41:19;79137.00;;;3.20
12007;BMP180;6062;47.294;12.182;2023-04-01T04:43:53;79127.00;;;3.10
12007;BMP180;6062;47.294;12.182;2023-04-01T04:46:21;79128.00;;;3.10
12007;BMP180;6062;47.294;12.182;2023-04-01T04:48:46;79123.00;;;3.00
12007;BMP180;6062;47.294;12.182;2023-04-01T04:51:18;79130.00;;;3.00
12007;BMP180;6062;47.294;12.182;2023-04-01T04:53:45;79141.00;;;3.10
12007;BMP180;6062;47.294;12.182;2023-04-01T04:56:11;79136.00;;;3.10
12007;BMP180;6062;47.294;12.182;2023-04-01T04:58:38;79141.00;;;3.10
12007;BMP180;6062;47.294;12.182;2023-04-01T05:01:10;79144.00;;;3.10
12007;BMP180;6062;47.294;12.182;2023-04-01T05:03:37;79131.00;;;3.10
12007;BMP180;6062;47.294;12.182;2023-04-01T05:06:03;79141.00;;;3.10
12007;BMP180;6062;47.294;12.182;2023-04-01T05:08:29;79128.00;;;3.10
12007;BMP180;6062;47.294;12.182;2023-04-01T05:10:55;79136.00;;;3.10
12007;BMP180;6062;47.294;12.182;2023-04-01T05:13:20;79134.00;;;3.20
12007;BMP180;6062;47.294;12.182;2023-04-01T05:15:46;79135.00;;;3.20
12007;BMP180;6062;47.294;12.182;2023-04-01T05:18:12;79137.00;;;3.20
12007;BMP180;6062;47.294;12.182;2023-04-01T05:20:38;79136.00;;;3.20
12007;BMP180;6062;47.294;12.182;2023-04-01T05:23:03;79140.00;;;3.20
12007;BMP180;6062;47.294;12.182;2023-04-01T05:25:29;79136.00;;;3.30
12007;BMP180;6062;47.294;12.182;2023-04-01T05:27:55;79130.00;;;3.40
12007;BMP180;6062;47.294;12.182;2023-04-01T05:30:21;79127.00;;;3.50
12007;BMP180;6062;47.294;12.182;2023-04-01T05:32:46;79119.00;;;3.50
12007;BMP180;6062;47.294;12.182;2023-04-01T05:35:12;79129.00;;;3.70
12007;BMP180;6062;47.294;12.182;2023-04-01T05:37:38;79119.00;;;3.80
12007;BMP180;6062;47.294;12.182;2023-04-01T05:40:05;79127.00;;;3.90
12007;BMP180;6062;47.294;12.182;2023-04-01T05:42:31;79126.00;;;4.00
12007;BMP180;6062;47.294;12.182;2023-04-01T05:44:56;79132.00;;;4.10
12007;BMP180;6062;47.294;12.182;2023-04-01T05:47:22;79131.00;;;4.20
12007;BMP180;6062;47.294;12.182;2023-04-01T05:49:48;79137.00;;;4.20
12007;BMP180;6062;47.294;12.182;2023-04-01T05:52:14;79143.00;;;4.30
12007;BMP180;6062;47.294;12.182;2023-04-01T05:54:40;79136.00;;;4.40
12007;BMP180;6062;47.294;12.182;2023-04-01T05:57:05;79139.00;;;4.50
12007;BMP180;6062;47.294;12.182;2023-04-01T05:59:31;79137.00;;;4.60
12007;BMP180;6062;47.294;12.182;2023-04-01T06:01:58;79131.00;;;4.70
12007;BMP180;6062;47.294;12.182;2023-04-01T06:04:24;79139.00;;;4.80
12007;BMP180;6062;47.294;12.182;2023-04-01T06:06:50;79142.00;;;4.80
12007;BMP180;6062;47.294;12.182;2023-04-01T06:09:24;79149.00;;;4.90
12007;BMP180;6062;47.294;12.182;2023-04-01T06:15:20;79153.00;;;5.20
12007;BMP180;6062;47.294;12.182;2023-04-01T06:18:03;79149.00;;;5.20
12007;BMP180;6062;47.294;12.182;2023-04-01T06:23:46;79141.00;;;5.30
12007;BMP180;6062;47.294;12.182;2023-04-01T06:27:07;79147.00;;;5.40
12007;BMP180;6062;47.294;12.182;2023-04-01T06:29:48;79147.00;;;5.40
12007;BMP180;6062;47.294;12.182;2023-04-01T06:33:05;79149.00;;;5.50
12007;BMP180;6062;47.294;12.182;2023-04-01T06:44:23;79162.00;;;6.60
12007;BMP180;6062;47.294;12.182;2023-04-01T06:47:11;79163.00;;;7.00
12007;BMP180;6062;47.294;12.182;2023-04-01T06:52:54;79150.00;;;7.80
12007;BMP180;6062;47.294;12.182;2023-04-01T06:58:20;79169.00;;;8.20
12007;BMP180;6062;47.294;12.182;2023-04-01T07:00:56;79162.00;;;8.10
12007;BMP180;6062;47.294;12.182;2023-04-01T07:03:49;79160.00;;;7.90
12007;BMP180;6062;47.294;12.182;2023-04-01T07:06:32;79160.00;;;7.80
12007;BMP180;6062;47.294;12.182;2023-04-01T07:09:06;79156.00;;;7.80
12007;BMP180;6062;47.294;12.182;2023-04-01T07:11:37;79164.00;;;7.90
12007;BMP180;6062;47.294;12.182;2023-04-01T07:14:27;79169.00;;;8.30
12007;BMP180;6062;47.294;12.182;2023-04-01T07:17:15;79172.00;;;8.70
12007;BMP180;6062;47.294;12.182;2023-04-01T07:19:56;79162.00;;;9.00
12007;BMP180;6062;47.294;12.182;2023-04-01T07:22:41;79178.00;;;9.10
12007;BMP180;6062;47.294;12.182;2023-04-01T07:25:20;79176.00;;;9.00
12007;BMP180;6062;47.294;12.182;2023-04-01T07:27:48;79177.00;;;9.00
12007;BMP180;6062;47.294;12.182;2023-04-01T07:30:20;79175.00;;;8.90
12007;BMP180;6062;47.294;12.182;2023-04-01T07:33:13;79165.00;;;9.10
12007;BMP180;6062;47.294;12.182;2023-04-01T07:35:57;79166.00;;;9.20
12007;BMP180;6062;47.294;12.182;2023-04-01T07:39:08;79161.00;;;9.70
12007;BMP180;6062;47.294;12.182;2023-04-01T07:41:51;79159.00;;;10.80
12007;BMP180;6062;47.294;12.182;2023-04-01T07:44:28;79160.00;;;12.20
12007;BMP180;6062;47.294;12.182;2023-04-01T07:58:20;79189.00;;;18.20
12007;BMP180;6062;47.294;12.182;2023-04-01T08:09:53;79196.00;;;22.70
12007;BMP180;6062;47.294;12.182;2023-04-01T08:19:04;79214.00;;;23.70
12007;BMP180;6062;47.294;12.182;2023-04-01T08:21:47;79211.00;;;23.50
12007;BMP180;6062;47.294;12.182;2023-04-01T08:24:41;79214.00;;;23.30
12007;BMP180;6062;47.294;12.182;2023-04-01T08:27:37;79211.00;;;23.30
12007;BMP180;6062;47.294;12.182;2023-04-01T08:30:44;79213.00;;;23.30
12007;BMP180;6062;47.294;12.182;2023-04-01T08:33:29;79213.00;;;23.20
12007;BMP180;6062;47.294;12.182;2023-04-01T08:41:48;79221.00;;;22.60
12007;BMP180;6062;47.294;12.182;2023-04-01T08:51:18;79218.00;;;21.00
12007;BMP180;6062;47.294;12.182;2023-04-01T08:53:50;79229.00;;;21.10
12007;BMP180;6062;47.294;12.182;2023-04-01T08:56:59;79222.00;;;21.90
12007;BMP180;6062;47.294;12.182;2023-04-01T09:03:08;79247.00;;;23.50
12007;BMP180;6062;47.294;12.182;2023-04-01T09:11:31;79247.00;;;22.60
12007;BMP180;6062;47.294;12.182;2023-04-01T09:31:43;79236.00;;;21.80
12007;BMP180;6062;47.294;12.182;2023-04-01T09:34:52;79233.00;;;21.40
12007;BMP180;6062;47.294;12.182;2023-04-01T09:40:37;79197.00;;;20.60
12007;BMP180;6062;47.294;12.182;2023-04-01T09:46:32;79221.00;;;19.50
12007;BMP180;6062;47.294;12.182;2023-04-01T09:49:20;79226.00;;;19.40
12007;BMP180;6062;47.294;12.182;2023-04-01T09:52:36;79248.00;;;19.70
12007;BMP180;6062;47.294;12.182;2023-04-01T09:58:33;79247.00;;;20.70
12007;BMP180;6062;47.294;12.182;2023-04-01T10:01:42;79243.00;;;20.70
12007;BMP180;6062;47.294;12.182;2023-04-01T10:11:02;79232.00;;;19.30
12007;BMP180;6062;47.294;12.182;2023-04-01T10:20:04;79234.00;;;18.70
12007;BMP180;6062;47.294;12.182;2023-04-01T10:36:57;79255.00;;;19.50
12007;BMP180;6062;47.294;12.182;2023-04-01T10:39:34;79235.00;;;19.50
12007;BMP180;6062;47.294;12.182;2023-04-01T10:42:50;79272.00;;;19.20
12007;BMP180;6062;47.294;12.182;2023-04-01T10:55:19;79223.00;;;16.80
12007;BMP180;6062;47.294;12.182;2023-04-01T11:05:26;79236.00;;;17.40
12007;BMP180;6062;47.294;12.182;2023-04-01T11:11:30;79219.00;;;17.70
12007;BMP180;6062;47.294;12.182;2023-04-01T11:23:04;79227.00;;;19.10
12007;BMP180;6062;47.294;12.182;2023-04-01T11:25:49;79214.00;;;19.10
12007;BMP180;6062;47.294;12.182;2023-04-01T11:40:22;79222.00;;;18.30
12007;BMP180;6062;47.294;12.182;2023-04-01T11:43:09;79215.00;;;18.10
12007;BMP180;6062;47.294;12.182;2023-04-01T11:46:11;79226.00;;;17.60
12007;BMP180;6062;47.294;12.182;2023-04-01T11:51:50;79229.00;;;16.40
12007;BMP180;6062;47.294;12.182;2023-04-01T11:54:47;79224.00;;;15.80
12007;BMP180;6062;47.294;12.182;2023-04-01T12:03:38;79206.00;;;14.30
12007;BMP180;6062;47.294;12.182;2023-04-01T12:09:21;79212.00;;;13.40
12007;BMP180;6062;47.294;12.182;2023-04-01T12:12:34;79207.00;;;13.00
12007;BMP180;6062;47.294;12.182;2023-04-01T12:15:29;79203.00;;;12.70
12007;BMP180;6062;47.294;12.182;2023-04-01T12:18:13;79208.00;;;12.60
12007;BMP180;6062;47.294;12.182;2023-04-01T12:21:22;79222.00;;;12.50
12007;BMP180;6062;47.294;12.182;2023-04-01T12:27:29;79203.00;;;12.20
12007;BMP180;6062;47.294;12.182;2023-04-01T12:39:22;79185.00;;;11.70
12007;BMP180;6062;47.294;12.182;2023-04-01T13:06:01;79215.00;;;11.70
12007;BMP180;6062;47.294;12.182;2023-04-01T13:28:32;79218.00;;;11.90
12007;BMP180;6062;47.294;12.182;2023-04-01T13:35:01;79221.00;;;11.80
12007;BMP180;6062;47.294;12.182;2023-04-01T13:40:41;79224.00;;;12.00
12007;BMP180;6062;47.294;12.182;2023-04-01T13:43:42;79212.00;;;12.10
12007;BMP180;6062;47.294;12.182;2023-04-01T13:56:07;79237.00;;;12.50
12007;BMP180;6062;47.294;12.182;2023-04-01T14:07:45;79252.00;;;12.80
12007;BMP180;6062;47.294;12.182;2023-04-01T14:13:23;79247.00;;;12.90
12007;BMP180;6062;47.294;12.182;2023-04-01T14:19:06;79234.00;;;12.80
12007;BMP180;6062;47.294;12.182;2023-04-01T14:21:52;79242.00;;;12.70
12007;BMP180;6062;47.294;12.182;2023-04-01T14:32:59;79263.00;;;12.60
12007;BMP180;6062;47.294;12.182;2023-04-01T14:41:59;79247.00;;;11.30
12007;BMP180;6062;47.294;12.182;2023-04-01T14:44:57;79254.00;;;10.90
12007;BMP180;6062;47.294;12.182;2023-04-01T14:50:41;79217.00;;;10.50
12007;BMP180;6062;47.294;12.182;2023-04-01T14:58:12;79228.00;;;9.90
12007;BMP180;6062;47.294;12.182;2023-04-01T15:09:50;79250.00;;;8.20
12007;BMP180;6062;47.294;12.182;2023-04-01T15:16:18;79242.00;;;7.80
12007;BMP180;6062;47.294;12.182;2023-04-01T15:19:23;79247.00;;;7.70
12007;BMP180;6062;47.294;12.182;2023-04-01T15:22:40;79247.00;;;7.70
12007;BMP180;6062;47.294;12.182;2023-04-01T15:25:20;79241.00;;;7.80
12007;BMP180;6062;47.294;12.182;2023-04-01T15:39:54;79245.00;;;7.60
12007;BMP180;6062;47.294;12.182;2023-04-01T15:57:09;79254.00;;;7.20
12007;BMP180;6062;47.294;12.182;2023-04-01T16:03:08;79249.00;;;7.00
12007;BMP180;6062;47.294;12.182;2023-04-01T16:11:29;79245.00;;;6.90
12007;BMP180;6062;47.294;12.182;2023-04-01T16:14:44;79247.00;;;6.80
12007;BMP180;6062;47.294;12.182;2023-04-01T16:22:40;79248.00;;;7.00
12007;BMP180;6062;47.294;12.182;2023-04-01T16:25:33;79253.00;;;7.20
12007;BMP180;6062;47.294;12.182;2023-04-01T16:28:31;79247.00;;;7.20
12007;BMP180;6062;47.294;12.182;2023-04-01T16:31:38;79242.00;;;7.30
12007;BMP180;6062;47.294;12.182;2023-04-01T16:34:18;79248.00;;;7.40
12007;BMP180;6062;47.294;12.182;2023-04-01T16:37:07;79254.00;;;7.50
12007;BMP180;6062;47.294;12.182;2023-04-01T16:40:09;79254.00;;;7.60
12007;BMP180;6062;47.294;12.182;2023-04-01T16:43:05;79258.00;;;7.60
12007;BMP180;6062;47.294;12.182;2023-04-01T16:49:32;79267.00;;;7.60
12007;BMP180;6062;47.294;12.182;2023-04-01T16:57:48;79270.00;;;7.50
12007;BMP180;6062;47.294;12.182;2023-04-01T17:00:39;79269.00;;;7.50
12007;BMP180;6062;47.294;12.182;2023-04-01T17:03:32;79271.00;;;7.40
12007;BMP180;6062;47.294;12.182;2023-04-01T17:15:26;79288.00;;;7.20
12007;BMP180;6062;47.294;12.182;2023-04-01T17:20:35;79300.00;;;7.00
12007;BMP180;6062;47.294;12.182;2023-04-01T17:23:38;79303.00;;;6.90
12007;BMP180;6062;47.294;12.182;2023-04-01T17:29:23;79294.00;;;6.80
12007;BMP180;6062;47.294;12.182;2023-04-01T17:46:35;79309.00;;;6.20
12007;BMP180;6062;47.294;12.182;2023-04-01T17:49:30;79309.00;;;6.10
12007;BMP180;6062;47.294;12.182;2023-04-01T17:55:15;79321.00;;;6.00
12007;BMP180;6062;47.294;12.182;2023-04-01T18:04:24;79311.00;;;5.90
12007;BMP180;6062;47.294;12.182;2023-04-01T18:10:29;79328.00;;;5.80
12007;BMP180;6062;47.294;12.182;2023-04-01T18:23:06;79330.00;;;5.30
12007;BMP180;6062;47.294;12.182;2023-04-01T18:25:44;79326.00;;;5.30
12007;BMP180;6062;47.294;12.182;2023-04-01T18:36:50;79348.00;;;5.20
12007;BMP180;6062;47.294;12.182;2023-04-01T18:39:39;79354.00;;;5.10
12007;BMP180;6062;47.294;12.182;2023-04-01T18:42:31;79343.00;;;5.00
12007;BMP180;6062;47.294;12.182;2023-04-01T18:45:32;79343.00;;;4.90
12007;BMP180;6062;47.294;12.182;2023-04-01T18:51:08;79347.00;;;4.80
12007;BMP180;6062;47.294;12.182;2023-04-01T18:53:43;79350.00;;;4.90
12007;BMP180;6062;47.294;12.182;2023-04-01T18:56:37;79349.00;;;4.90
12007;BMP180;6062;47.294;12.182;2023-04-01T18:59:25;79361.00;;;5.00
12007;BMP180;6062;47.294;12.182;2023-04-01T19:02:24;79361.00;;;5.00
12007;BMP180;6062;47.294;12.182;2023-04-01T19:05:16;79362.00;;;5.10
12007;BMP180;6062;47.294;12.182;2023-04-01T19:07:49;79364.00;;;5.10
12007;BMP180;6062;47.294;12.182;2023-04-01T19:22:35;79370.00;;;5.10
12007;BMP180;6062;47.294;12.182;2023-04-01T19:25:40;79374.00;;;5.00
12007;BMP180;6062;47.294;12.182;2023-04-01T19:28:49;79372.00;;;5.00
12007;BMP180;6062;47.294;12.182;2023-04-01T19:34:56;79375.00;;;5.10
12007;BMP180;6062;47.294;12.182;2023-04-01T19:37:45;79383.00;;;5.10
12007;BMP180;6062;47.294;12.182;2023-04-01T19:43:59;79385.00;;;5.10
12007;BMP180;6062;47.294;12.182;2023-04-01T19:46:34;79375.00;;;5.10
12007;BMP180;6062;47.294;12.182;2023-04-01T19:49:36;79380.00;;;5.10
12007;BMP180;6062;47.294;12.182;2023-04-01T20:00:31;79392.00;;;5.10
12007;BMP180;6062;47.294;12.182;2023-04-01T20:03:20;79385.00;;;5.10
12007;BMP180;6062;47.294;12.182;2023-04-01T20:15:21;79398.00;;;5.10
12007;BMP180;6062;47.294;12.182;2023-04-01T20:17:49;79397.00;;;5.00
12007;BMP180;6062;47.294;12.182;2023-04-01T20:20:24;79391.00;;;5.00
12007;BMP180;6062;47.294;12.182;2023-04-01T20:26:00;79392.00;;;5.00
12007;BMP180;6062;47.294;12.182;2023-04-01T20:28:44;79395.00;;;5.00
12007;BMP180;6062;47.294;12.182;2023-04-01T20:31:31;79391.00;;;5.00
12007;BMP180;6062;47.294;12.182;2023-04-01T20:34:33;79396.00;;;4.90
12007;BMP180;6062;47.294;12.182;2023-04-01T20:40:35;79399.00;;;4.90
12007;BMP180;6062;47.294;12.182;2023-04-01T20:43:24;79401.00;;;4.80
12007;BMP180;6062;47.294;12.182;2023-04-01T20:46:11;79391.00;;;4.80
12007;BMP180;6062;47.294;12.182;2023-04-01T20:52:02;79393.00;;;4.80
12007;BMP180;6062;47.294;12.182;2023-04-01T20:55:05;79395.00;;;4.80
12007;BMP180;6062;47.294;12.182;2023-04-01T20:58:09;79405.00;;;4.70
12007;BMP180;6062;47.294;12.182;2023-04-01T21:03:47;79406.00;;;4.70
12007;BMP180;6062;47.294;12.182;2023-04-01T21:09:53;79413.00;;;4.70
12007;BMP180;6062;47.294;12.182;2023-04-01T21:16:00;79408.00;;;4.70
12007;BMP180;6062;47.294;12.182;2023-04-01T21:18:53;79411.00;;;4.70
12007;BMP180;6062;47.294;12.182;2023-04-01T21:21:54;79403.00;;;4.60
12007;BMP180;6062;47.294;12.182;2023-04-01T21:28:09;79411.00;;;4.60
12007;BMP180;6062;47.294;12.182;2023-04-01T21:39:42;79411.00;;;4.50
12007;BMP180;6062;47.294;12.182;2023-04-01T21:55:07;79426.00;;;4.40
12007;BMP180;6062;47.294;12.182;2023-04-01T22:07:25;79413.00;;;4.40
12007;BMP180;6062;47.294;12.182;2023-04-01T22:22:29;79413.00;;;4.30
12007;BMP180;6062;47.294;12.182;2023-04-01T22:25:18;79416.00;;;4.30
12007;BMP180;6062;47.294;12.182;2023-04-01T22:27:55;79414.00;;;4.30
12007;BMP180;6062;47.294;12.182;2023-04-01T22:30:38;79416.00;;;4.30
12007;BMP180;6062;47.294;12.182;2023-04-01T22:39:23;79420.00;;;4.40
12007;BMP180;6062;47.294;12.182;2023-04-01T22:42:28;79429.00;;;4.50
12007;BMP180;6062;47.294;12.182;2023-04-01T22:54:02;79434.00;;;4.40
12007;BMP180;6062;47.294;12.182;2023-04-01T22:56:40;79431.00;;;4.50
12007;BMP180;6062;47.294;12.182;2023-04-01T22:59:45;79426.00;;;4.50
12007;BMP180;6062;47.294;12.182;2023-04-01T23:02:28;79423.00;;;4.50
12007;BMP180;6062;47.294;12.182;2023-04-01T23:05:03;79426.00;;;4.60
12007;BMP180;6062;47.294;12.182;2023-04-01T23:11:02;79440.00;;;4.50
12007;BMP180;6062;47.294;12.182;2023-04-01T23:13:36;79436.00;;;4.50
12007;BMP180;6062;47.294;12.182;2023-04-01T23:16:05;79437.00;;;4.50
12007;BMP180;6062;47.294;12.182;2023-04-01T23:18:50;79442.00;;;4.50
12007;BMP180;6062;47.294;12.182;2023-04-01T23:21:40;79443.00;;;4.50
12007;BMP180;6062;47.294;12.182;2023-04-01T23:24:24;79439.00;;;4.50
12007;BMP180;6062;47.294;12.182;2023-04-01T23:27:03;79438.00;;;4.60
12007;BMP180;6062;47.294;12.182;2023-04-01T23:29:35;79441.00;;;4.60
12007;BMP180;6062;47.294;12.182;2023-04-01T23:32:03;79435.00;;;4.60
12007;BMP180;6062;47.294;12.182;2023-04-01T23:34:36;79451.00;;;4.60
12007;BMP180;6062;47.294;12.182;2023-04-01T23:37:10;79444.00;;;4.60
12007;BMP180;6062;47.294;12.182;2023-04-01T23:39:44;79453.00;;;4.60
12007;BMP180;6062;47.294;12.182;2023-04-01T23:42:18;79451.00;;;4.60
12007;BMP180;6062;47.294;12.182;2023-04-01T23:44:46;79453.00;;;4.70
12007;BMP180;6062;47.294;12.182;2023-04-01T23:47:22;79444.00;;;4.70
12007;BMP180;6062;47.294;12.182;2023-04-01T23:52:46;79440.00;;;4.70
12007;BMP180;6062;47.294;12.182;2023-04-01T23:55:25;79446.00;;;4.70
